Terminal Aerodrome Forecast
Issued by NWS Bismarck, ND

Home | Current Version | Previous Version | Text Only | Print | Product List | Glossary Off
Versions: 1 2 3 4 5 6 7 8 9 10 11 12 13 14 15 16 17 18 19 20 21 22 23 24

000
FTUS43 KBIS 222226 AAB
TAFBIS
TAF AMD
KBIS 222226Z 2222/2318 02012G20KT P6SM VCSH OVC015
     FM230000 01007KT P6SM OVC015
     FM230300 36005KT 4SM BR OVC025
     FM231200 05006KT 1SM BR OVC008
     FM231700 06008KT 3SM BR OVC015=

USA.gov is the U.S. government's official web portal to all federal, state and local government web resources and services.